sensor_id;sensor_type;location;lat;lon;timestamp;temperature;humidity
17039;DHT22;8636;55.750;13.202;2024-03-07T00:00:53;0.10;99.90
17039;DHT22;8636;55.750;13.202;2024-03-07T00:03:23;0.10;99.90
17039;DHT22;8636;55.750;13.202;2024-03-07T00:05:51;0.30;99.90
17039;DHT22;8636;55.750;13.202;2024-03-07T00:08:34;0.30;99.90
17039;DHT22;8636;55.750;13.202;2024-03-07T00:11:03;0.40;99.90
17039;DHT22;8636;55.750;13.202;2024-03-07T00:13:38;0.40;99.90
17039;DHT22;8636;55.750;13.202;2024-03-07T00:16:06;0.40;99.90
17039;DHT22;8636;55.750;13.202;2024-03-07T00:18:35;0.40;99.90
17039;DHT22;8636;55.750;13.202;2024-03-07T00:21:10;0.40;99.90
17039;DHT22;8636;55.750;13.202;2024-03-07T00:23:39;0.50;99.90
17039;DHT22;8636;55.750;13.202;2024-03-07T00:26:07;0.50;99.90
17039;DHT22;8636;55.750;13.202;2024-03-07T00:28:42;0.40;99.90
17039;DHT22;8636;55.750;13.202;2024-03-07T00:31:10;0.40;99.90
17039;DHT22;8636;55.750;13.202;2024-03-07T00:33:38;0.40;99.90
17039;DHT22;8636;55.750;13.202;2024-03-07T00:36:31;0.40;99.90
17039;DHT22;8636;55.750;13.202;2024-03-07T00:39:01;0.50;99.90
17039;DHT22;8636;55.750;13.202;2024-03-07T00:41:36;0.50;99.90
17039;DHT22;8636;55.750;13.202;2024-03-07T00:44:05;0.60;99.90
17039;DHT22;8636;55.750;13.202;2024-03-07T00:46:33;0.60;99.90
17039;DHT22;8636;55.750;13.202;2024-03-07T00:49:07;0.40;99.90
17039;DHT22;8636;55.750;13.202;2024-03-07T00:51:35;0.40;99.90
17039;DHT22;8636;55.750;13.202;2024-03-07T00:54:07;0.30;99.90
17039;DHT22;8636;55.750;13.202;2024-03-07T00:56:42;0.30;99.90
17039;DHT22;8636;55.750;13.202;2024-03-07T00:59:09;0.30;99.90
17039;DHT22;8636;55.750;13.202;2024-03-07T01:01:38;0.40;99.90
17039;DHT22;8636;55.750;13.202;2024-03-07T01:04:15;0.40;99.90
17039;DHT22;8636;55.750;13.202;2024-03-07T01:06:43;0.40;99.90
17039;DHT22;8636;55.750;13.202;2024-03-07T01:09:33;0.30;99.90
17039;DHT22;8636;55.750;13.202;2024-03-07T01:12:02;0.40;99.90
17039;DHT22;8636;55.750;13.202;2024-03-07T01:14:38;0.40;99.90
17039;DHT22;8636;55.750;13.202;2024-03-07T01:17:06;0.40;99.90
17039;DHT22;8636;55.750;13.202;2024-03-07T01:19:35;0.30;99.90
17039;DHT22;8636;55.750;13.202;2024-03-07T01:22:11;0.10;99.90
17039;DHT22;8636;55.750;13.202;2024-03-07T01:24:40;0.20;99.90
17039;DHT22;8636;55.750;13.202;2024-03-07T01:27:08;0.30;99.90
17039;DHT22;8636;55.750;13.202;2024-03-07T01:29:43;0.10;99.90
17039;DHT22;8636;55.750;13.202;2024-03-07T01:32:11;0.10;99.90
17039;DHT22;8636;55.750;13.202;2024-03-07T01:34:39;0.00;99.90
17039;DHT22;8636;55.750;13.202;2024-03-07T01:37:14;0.00;99.90
17039;DHT22;8636;55.750;13.202;2024-03-07T01:39:43;-0.10;99.90
17039;DHT22;8636;55.750;13.202;2024-03-07T01:42:11;-0.10;99.90
17039;DHT22;8636;55.750;13.202;2024-03-07T01:44:46;-0.10;99.90
17039;DHT22;8636;55.750;13.202;2024-03-07T01:47:14;-0.10;99.90
17039;DHT22;8636;55.750;13.202;2024-03-07T01:49:42;0.00;99.90
17039;DHT22;8636;55.750;13.202;2024-03-07T01:52:17;0.00;99.90
17039;DHT22;8636;55.750;13.202;2024-03-07T01:54:46;0.20;99.90
17039;DHT22;8636;55.750;13.202;2024-03-07T01:57:15;0.10;99.90
17039;DHT22;8636;55.750;13.202;2024-03-07T01:59:52;0.10;99.90
17039;DHT22;8636;55.750;13.202;2024-03-07T02:04:52;0.00;99.90
17039;DHT22;8636;55.750;13.202;2024-03-07T02:07:27;-0.10;99.90
17039;DHT22;8636;55.750;13.202;2024-03-07T02:10:03;0.00;99.90
17039;DHT22;8636;55.750;13.202;2024-03-07T02:12:38;-0.10;99.90
17039;DHT22;8636;55.750;13.202;2024-03-07T02:15:06;-0.20;99.90
17039;DHT22;8636;55.750;13.202;2024-03-07T02:17:35;0.00;99.90
17039;DHT22;8636;55.750;13.202;2024-03-07T02:20:11;0.00;99.90
17039;DHT22;8636;55.750;13.202;2024-03-07T02:22:41;0.10;99.90
17039;DHT22;8636;55.750;13.202;2024-03-07T02:25:09;0.20;99.90
17039;DHT22;8636;55.750;13.202;2024-03-07T02:27:44;0.30;99.90
17039;DHT22;8636;55.750;13.202;2024-03-07T02:30:13;0.20;99.90
17039;DHT22;8636;55.750;13.202;2024-03-07T02:32:42;0.10;99.90
17039;DHT22;8636;55.750;13.202;2024-03-07T02:35:17;0.00;99.90
17039;DHT22;8636;55.750;13.202;2024-03-07T02:37:47;0.00;99.90
17039;DHT22;8636;55.750;13.202;2024-03-07T02:40:16;0.00;99.90
17039;DHT22;8636;55.750;13.202;2024-03-07T02:42:50;0.20;99.90
17039;DHT22;8636;55.750;13.202;2024-03-07T02:45:18;0.10;99.90
17039;DHT22;8636;55.750;13.202;2024-03-07T02:47:46;0.00;99.90
17039;DHT22;8636;55.750;13.202;2024-03-07T02:50:21;0.00;99.90
17039;DHT22;8636;55.750;13.202;2024-03-07T02:52:51;0.10;99.90
17039;DHT22;8636;55.750;13.202;2024-03-07T02:55:20;0.00;99.90
17039;DHT22;8636;55.750;13.202;2024-03-07T02:57:55;-0.10;99.90
17039;DHT22;8636;55.750;13.202;2024-03-07T03:00:25;-0.10;99.90
17039;DHT22;8636;55.750;13.202;2024-03-07T03:03:03;-0.10;99.90
17039;DHT22;8636;55.750;13.202;2024-03-07T03:05:44;-0.20;99.90
17039;DHT22;8636;55.750;13.202;2024-03-07T03:08:20;-0.20;99.90
17039;DHT22;8636;55.750;13.202;2024-03-07T03:10:49;-0.20;99.90
17039;DHT22;8636;55.750;13.202;2024-03-07T03:13:18;-0.10;99.90
17039;DHT22;8636;55.750;13.202;2024-03-07T03:15:53;-0.20;99.90
17039;DHT22;8636;55.750;13.202;2024-03-07T03:18:21;-0.20;99.90
17039;DHT22;8636;55.750;13.202;2024-03-07T03:20:49;-0.20;99.90
17039;DHT22;8636;55.750;13.202;2024-03-07T03:23:25;-0.20;99.90
17039;DHT22;8636;55.750;13.202;2024-03-07T03:25:53;-0.20;99.90
17039;DHT22;8636;55.750;13.202;2024-03-07T03:28:22;-0.10;99.90
17039;DHT22;8636;55.750;13.202;2024-03-07T03:30:57;0.00;99.90
17039;DHT22;8636;55.750;13.202;2024-03-07T03:33:25;0.00;99.90
17039;DHT22;8636;55.750;13.202;2024-03-07T03:35:53;0.10;99.90
17039;DHT22;8636;55.750;13.202;2024-03-07T03:38:29;0.20;99.90
17039;DHT22;8636;55.750;13.202;2024-03-07T03:40:58;0.20;99.90
17039;DHT22;8636;55.750;13.202;2024-03-07T03:43:26;0.10;99.90
17039;DHT22;8636;55.750;13.202;2024-03-07T03:46:01;0.20;99.90
17039;DHT22;8636;55.750;13.202;2024-03-07T03:48:30;0.20;99.90
17039;DHT22;8636;55.750;13.202;2024-03-07T03:50:59;0.20;99.90
17039;DHT22;8636;55.750;13.202;2024-03-07T03:53:35;0.20;99.90
17039;DHT22;8636;55.750;13.202;2024-03-07T03:56:04;0.30;99.90
17039;DHT22;8636;55.750;13.202;2024-03-07T03:58:33;0.30;99.90
17039;DHT22;8636;55.750;13.202;2024-03-07T04:01:08;0.30;99.90
17039;DHT22;8636;55.750;13.202;2024-03-07T04:03:40;0.30;99.90
17039;DHT22;8636;55.750;13.202;2024-03-07T04:06:21;0.30;99.90
17039;DHT22;8636;55.750;13.202;2024-03-07T04:08:50;0.30;99.90
17039;DHT22;8636;55.750;13.202;2024-03-07T04:11:21;0.30;99.90
17039;DHT22;8636;55.750;13.202;2024-03-07T04:13:56;0.30;99.90
17039;DHT22;8636;55.750;13.202;2024-03-07T04:16:24;0.30;99.90
17039;DHT22;8636;55.750;13.202;2024-03-07T04:18:53;0.30;99.90
17039;DHT22;8636;55.750;13.202;2024-03-07T04:21:28;0.40;99.90
17039;DHT22;8636;55.750;13.202;2024-03-07T04:23:57;0.40;99.90
17039;DHT22;8636;55.750;13.202;2024-03-07T04:26:25;0.40;99.90
17039;DHT22;8636;55.750;13.202;2024-03-07T04:29:00;0.40;99.90
17039;DHT22;8636;55.750;13.202;2024-03-07T04:31:28;0.40;99.90
17039;DHT22;8636;55.750;13.202;2024-03-07T04:33:56;0.40;99.90
17039;DHT22;8636;55.750;13.202;2024-03-07T04:36:31;0.30;99.90
17039;DHT22;8636;55.750;13.202;2024-03-07T04:39:03;0.30;99.90
17039;DHT22;8636;55.750;13.202;2024-03-07T04:41:38;0.30;99.90
17039;DHT22;8636;55.750;13.202;2024-03-07T04:44:06;0.30;99.90
17039;DHT22;8636;55.750;13.202;2024-03-07T04:46:34;0.40;99.90
17039;DHT22;8636;55.750;13.202;2024-03-07T04:49:09;0.40;99.90
17039;DHT22;8636;55.750;13.202;2024-03-07T04:51:37;0.30;99.90
17039;DHT22;8636;55.750;13.202;2024-03-07T04:54:09;0.30;99.90
17039;DHT22;8636;55.750;13.202;2024-03-07T04:56:44;0.30;99.90
17039;DHT22;8636;55.750;13.202;2024-03-07T04:59:12;0.30;99.90
17039;DHT22;8636;55.750;13.202;2024-03-07T05:01:41;0.20;99.90
17039;DHT22;8636;55.750;13.202;2024-03-07T05:04:21;0.20;99.90
17039;DHT22;8636;55.750;13.202;2024-03-07T05:07:06;0.10;99.90
17039;DHT22;8636;55.750;13.202;2024-03-07T05:09:42;0.10;99.90
17039;DHT22;8636;55.750;13.202;2024-03-07T05:12:10;0.10;99.90
17039;DHT22;8636;55.750;13.202;2024-03-07T05:14:39;0.10;99.90
17039;DHT22;8636;55.750;13.202;2024-03-07T05:17:14;0.10;99.90
17039;DHT22;8636;55.750;13.202;2024-03-07T05:19:43;0.10;99.90
17039;DHT22;8636;55.750;13.202;2024-03-07T05:22:11;0.10;99.90
17039;DHT22;8636;55.750;13.202;2024-03-07T05:24:50;0.10;99.90
17039;DHT22;8636;55.750;13.202;2024-03-07T05:27:18;0.00;99.90
17039;DHT22;8636;55.750;13.202;2024-03-07T05:29:48;0.00;99.90
17039;DHT22;8636;55.750;13.202;2024-03-07T05:32:23;0.00;99.90
17039;DHT22;8636;55.750;13.202;2024-03-07T05:34:53;0.00;99.90
17039;DHT22;8636;55.750;13.202;2024-03-07T05:37:21;0.00;99.90
17039;DHT22;8636;55.750;13.202;2024-03-07T05:39:58;-0.10;99.90
17039;DHT22;8636;55.750;13.202;2024-03-07T05:42:26;-0.20;99.90
17039;DHT22;8636;55.750;13.202;2024-03-07T05:45:03;-0.10;99.90
17039;DHT22;8636;55.750;13.202;2024-03-07T05:47:41;-0.20;99.90
17039;DHT22;8636;55.750;13.202;2024-03-07T05:50:09;-0.20;99.90
17039;DHT22;8636;55.750;13.202;2024-03-07T05:52:37;-0.10;99.90
17039;DHT22;8636;55.750;13.202;2024-03-07T05:55:13;-0.20;99.90
17039;DHT22;8636;55.750;13.202;2024-03-07T05:57:42;-0.20;99.90
17039;DHT22;8636;55.750;13.202;2024-03-07T06:00:13;-0.20;99.90
17039;DHT22;8636;55.750;13.202;2024-03-07T06:02:49;-0.20;99.90
17039;DHT22;8636;55.750;13.202;2024-03-07T06:05:17;-0.20;99.90
17039;DHT22;8636;55.750;13.202;2024-03-07T06:07:58;-0.20;99.90
17039;DHT22;8636;55.750;13.202;2024-03-07T06:10:42;-0.10;99.90
17039;DHT22;8636;55.750;13.202;2024-03-07T06:13:17;-0.10;99.90
17039;DHT22;8636;55.750;13.202;2024-03-07T06:15:52;-0.10;99.90
17039;DHT22;8636;55.750;13.202;2024-03-07T06:18:27;0.00;99.90
17039;DHT22;8636;55.750;13.202;2024-03-07T06:20:59;0.00;99.90
17039;DHT22;8636;55.750;13.202;2024-03-07T06:23:34;0.00;99.90
17039;DHT22;8636;55.750;13.202;2024-03-07T06:26:03;0.00;99.90
17039;DHT22;8636;55.750;13.202;2024-03-07T06:28:46;0.10;99.90
17039;DHT22;8636;55.750;13.202;2024-03-07T06:31:14;0.00;99.90
17039;DHT22;8636;55.750;13.202;2024-03-07T06:33:42;0.00;99.90
17039;DHT22;8636;55.750;13.202;2024-03-07T06:36:17;-0.10;99.90
17039;DHT22;8636;55.750;13.202;2024-03-07T06:38:45;-0.10;99.90
17039;DHT22;8636;55.750;13.202;2024-03-07T06:41:14;0.00;99.90
17039;DHT22;8636;55.750;13.202;2024-03-07T06:43:49;0.00;99.90
17039;DHT22;8636;55.750;13.202;2024-03-07T06:46:17;0.00;99.90
17039;DHT22;8636;55.750;13.202;2024-03-07T06:48:46;0.00;99.90
17039;DHT22;8636;55.750;13.202;2024-03-07T06:51:21;0.00;99.90
17039;DHT22;8636;55.750;13.202;2024-03-07T06:53:49;0.00;99.90
17039;DHT22;8636;55.750;13.202;2024-03-07T06:56:19;0.00;99.90
17039;DHT22;8636;55.750;13.202;2024-03-07T06:58:55;0.00;99.90
17039;DHT22;8636;55.750;13.202;2024-03-07T07:01:23;0.10;99.90
17039;DHT22;8636;55.750;13.202;2024-03-07T07:03:51;0.20;99.90
17039;DHT22;8636;55.750;13.202;2024-03-07T07:06:28;0.30;99.90
17039;DHT22;8636;55.750;13.202;2024-03-07T07:08:56;0.30;99.90
17039;DHT22;8636;55.750;13.202;2024-03-07T07:11:27;0.30;99.90
17039;DHT22;8636;55.750;13.202;2024-03-07T07:14:02;0.50;99.90
17039;DHT22;8636;55.750;13.202;2024-03-07T07:16:37;0.60;99.90
17039;DHT22;8636;55.750;13.202;2024-03-07T07:19:18;0.60;99.90
17039;DHT22;8636;55.750;13.202;2024-03-07T07:21:46;0.50;99.90
17039;DHT22;8636;55.750;13.202;2024-03-07T07:24:16;0.50;99.90
17039;DHT22;8636;55.750;13.202;2024-03-07T07:26:53;0.50;99.90
17039;DHT22;8636;55.750;13.202;2024-03-07T07:29:22;0.60;99.90
17039;DHT22;8636;55.750;13.202;2024-03-07T07:31:50;0.60;99.90
17039;DHT22;8636;55.750;13.202;2024-03-07T07:34:25;0.60;99.90
17039;DHT22;8636;55.750;13.202;2024-03-07T07:36:53;0.60;99.90
17039;DHT22;8636;55.750;13.202;2024-03-07T07:39:21;0.60;99.90
17039;DHT22;8636;55.750;13.202;2024-03-07T07:41:57;0.60;99.90
17039;DHT22;8636;55.750;13.202;2024-03-07T07:44:26;0.80;99.90
17039;DHT22;8636;55.750;13.202;2024-03-07T07:46:54;1.00;99.90
17039;DHT22;8636;55.750;13.202;2024-03-07T07:49:29;1.00;99.90
17039;DHT22;8636;55.750;13.202;2024-03-07T07:51:57;0.90;99.90
17039;DHT22;8636;55.750;13.202;2024-03-07T07:54:25;0.90;99.90
17039;DHT22;8636;55.750;13.202;2024-03-07T07:57:01;1.00;99.90
17039;DHT22;8636;55.750;13.202;2024-03-07T07:59:29;1.10;99.90
17039;DHT22;8636;55.750;13.202;2024-03-07T08:01:59;1.20;99.90
17039;DHT22;8636;55.750;13.202;2024-03-07T08:04:40;1.30;99.90
17039;DHT22;8636;55.750;13.202;2024-03-07T08:07:09;1.30;99.90
17039;DHT22;8636;55.750;13.202;2024-03-07T08:09:44;1.20;99.90
17039;DHT22;8636;55.750;13.202;2024-03-07T08:12:13;1.30;99.90
17039;DHT22;8636;55.750;13.202;2024-03-07T08:14:41;1.30;99.90
17039;DHT22;8636;55.750;13.202;2024-03-07T08:17:18;1.40;99.90
17039;DHT22;8636;55.750;13.202;2024-03-07T08:19:47;1.50;99.90
17039;DHT22;8636;55.750;13.202;2024-03-07T08:22:16;1.70;99.90
17039;DHT22;8636;55.750;13.202;2024-03-07T08:24:50;1.90;99.90
17039;DHT22;8636;55.750;13.202;2024-03-07T08:27:20;2.00;99.90
17039;DHT22;8636;55.750;13.202;2024-03-07T08:29:48;2.10;99.90
17039;DHT22;8636;55.750;13.202;2024-03-07T08:32:23;2.00;99.90
17039;DHT22;8636;55.750;13.202;2024-03-07T08:34:52;1.90;99.90
17039;DHT22;8636;55.750;13.202;2024-03-07T08:37:22;2.00;99.90
17039;DHT22;8636;55.750;13.202;2024-03-07T08:39:57;2.00;99.90
17039;DHT22;8636;55.750;13.202;2024-03-07T08:42:26;2.00;99.90
17039;DHT22;8636;55.750;13.202;2024-03-07T08:44:55;1.90;99.90
17039;DHT22;8636;55.750;13.202;2024-03-07T08:47:30;1.80;99.90
17039;DHT22;8636;55.750;13.202;2024-03-07T08:49:59;1.70;99.90
17039;DHT22;8636;55.750;13.202;2024-03-07T08:52:27;1.70;99.90
17039;DHT22;8636;55.750;13.202;2024-03-07T08:55:02;1.60;99.90
17039;DHT22;8636;55.750;13.202;2024-03-07T08:57:31;1.50;99.90
17039;DHT22;8636;55.750;13.202;2024-03-07T08:59:59;1.60;99.90
17039;DHT22;8636;55.750;13.202;2024-03-07T09:02:38;1.70;99.90
17039;DHT22;8636;55.750;13.202;2024-03-07T09:05:06;1.70;99.90
17039;DHT22;8636;55.750;13.202;2024-03-07T09:07:51;1.90;99.90
17039;DHT22;8636;55.750;13.202;2024-03-07T09:10:19;2.00;99.90
17039;DHT22;8636;55.750;13.202;2024-03-07T09:12:50;1.90;99.90
17039;DHT22;8636;55.750;13.202;2024-03-07T09:15:26;1.70;99.90
17039;DHT22;8636;55.750;13.202;2024-03-07T09:17:55;2.00;99.90
17039;DHT22;8636;55.750;13.202;2024-03-07T09:20:25;2.00;99.90
17039;DHT22;8636;55.750;13.202;2024-03-07T09:23:00;1.90;99.90
17039;DHT22;8636;55.750;13.202;2024-03-07T09:25:28;2.10;99.90
17039;DHT22;8636;55.750;13.202;2024-03-07T09:28:01;2.40;99.90
17039;DHT22;8636;55.750;13.202;2024-03-07T09:30:36;2.40;99.90
17039;DHT22;8636;55.750;13.202;2024-03-07T09:33:06;2.40;99.90
17039;DHT22;8636;55.750;13.202;2024-03-07T09:35:44;2.70;99.90
17039;DHT22;8636;55.750;13.202;2024-03-07T09:38:12;2.70;99.90
17039;DHT22;8636;55.750;13.202;2024-03-07T09:40:40;2.70;99.90
17039;DHT22;8636;55.750;13.202;2024-03-07T09:43:17;3.00;99.90
17039;DHT22;8636;55.750;13.202;2024-03-07T09:45:46;3.00;99.90
17039;DHT22;8636;55.750;13.202;2024-03-07T09:48:22;3.10;99.90
17039;DHT22;8636;55.750;13.202;2024-03-07T09:50:58;3.10;99.90
17039;DHT22;8636;55.750;13.202;2024-03-07T09:53:37;3.40;99.90
17039;DHT22;8636;55.750;13.202;2024-03-07T09:56:06;3.40;99.90
17039;DHT22;8636;55.750;13.202;2024-03-07T09:58:37;3.40;99.90
17039;DHT22;8636;55.750;13.202;2024-03-07T10:01:12;3.20;99.90
17039;DHT22;8636;55.750;13.202;2024-03-07T10:03:47;3.50;99.90
17039;DHT22;8636;55.750;13.202;2024-03-07T10:06:30;3.50;99.90
17039;DHT22;8636;55.750;13.202;2024-03-07T10:08:59;3.70;99.90
17039;DHT22;8636;55.750;13.202;2024-03-07T10:11:27;3.90;99.90
17039;DHT22;8636;55.750;13.202;2024-03-07T10:14:03;4.10;99.90
17039;DHT22;8636;55.750;13.202;2024-03-07T10:16:31;4.10;99.90
17039;DHT22;8636;55.750;13.202;2024-03-07T10:19:04;4.10;99.90
17039;DHT22;8636;55.750;13.202;2024-03-07T10:21:40;3.90;99.90
17039;DHT22;8636;55.750;13.202;2024-03-07T10:24:09;4.00;99.90
17039;DHT22;8636;55.750;13.202;2024-03-07T10:26:38;4.10;99.90
17039;DHT22;8636;55.750;13.202;2024-03-07T10:29:14;4.10;99.90
17039;DHT22;8636;55.750;13.202;2024-03-07T10:31:42;4.20;99.90
17039;DHT22;8636;55.750;13.202;2024-03-07T10:34:23;4.30;99.90
17039;DHT22;8636;55.750;13.202;2024-03-07T10:36:58;4.20;99.90
17039;DHT22;8636;55.750;13.202;2024-03-07T10:39:30;4.30;99.90
17039;DHT22;8636;55.750;13.202;2024-03-07T10:42:05;4.40;99.90
17039;DHT22;8636;55.750;13.202;2024-03-07T10:44:38;4.70;99.90
17039;DHT22;8636;55.750;13.202;2024-03-07T10:47:17;4.60;99.90
17039;DHT22;8636;55.750;13.202;2024-03-07T10:49:59;4.70;99.90
17039;DHT22;8636;55.750;13.202;2024-03-07T10:52:40;4.60;99.90
17039;DHT22;8636;55.750;13.202;2024-03-07T10:55:18;4.70;99.90
17039;DHT22;8636;55.750;13.202;2024-03-07T10:58:00;4.60;99.90
17039;DHT22;8636;55.750;13.202;2024-03-07T11:00:31;4.50;99.90
17039;DHT22;8636;55.750;13.202;2024-03-07T11:03:09;4.70;99.90
17039;DHT22;8636;55.750;13.202;2024-03-07T11:05:46;4.90;99.90
17039;DHT22;8636;55.750;13.202;2024-03-07T11:08:21;5.10;99.90
17039;DHT22;8636;55.750;13.202;2024-03-07T11:10:50;5.00;99.90
17039;DHT22;8636;55.750;13.202;2024-03-07T11:13:19;5.10;99.90
17039;DHT22;8636;55.750;13.202;2024-03-07T11:15:55;5.10;99.90
17039;DHT22;8636;55.750;13.202;2024-03-07T11:18:26;5.00;99.90
17039;DHT22;8636;55.750;13.202;2024-03-07T11:21:02;5.00;99.90
17039;DHT22;8636;55.750;13.202;2024-03-07T11:23:34;5.10;99.90
17039;DHT22;8636;55.750;13.202;2024-03-07T11:26:14;5.10;99.90
17039;DHT22;8636;55.750;13.202;2024-03-07T11:28:43;5.20;99.90
17039;DHT22;8636;55.750;13.202;2024-03-07T11:31:26;5.40;99.90
17039;DHT22;8636;55.750;13.202;2024-03-07T11:34:12;5.40;99.90
17039;DHT22;8636;55.750;13.202;2024-03-07T11:36:48;5.50;99.90
17039;DHT22;8636;55.750;13.202;2024-03-07T11:39:40;5.40;99.90
17039;DHT22;8636;55.750;13.202;2024-03-07T11:42:25;5.50;99.90
17039;DHT22;8636;55.750;13.202;2024-03-07T11:44:54;5.50;99.90
17039;DHT22;8636;55.750;13.202;2024-03-07T11:47:36;5.40;99.90
17039;DHT22;8636;55.750;13.202;2024-03-07T11:50:07;5.40;99.90
17039;DHT22;8636;55.750;13.202;2024-03-07T11:52:45;5.50;99.90
17039;DHT22;8636;55.750;13.202;2024-03-07T11:55:13;5.60;99.90
17039;DHT22;8636;55.750;13.202;2024-03-07T11:57:41;5.70;99.90
17039;DHT22;8636;55.750;13.202;2024-03-07T12:00:18;5.70;99.90
17039;DHT22;8636;55.750;13.202;2024-03-07T12:02:48;5.70;99.90
17039;DHT22;8636;55.750;13.202;2024-03-07T12:05:16;5.70;99.90
17039;DHT22;8636;55.750;13.202;2024-03-07T12:07:53;5.80;99.90
17039;DHT22;8636;55.750;13.202;2024-03-07T12:10:23;5.80;99.90
17039;DHT22;8636;55.750;13.202;2024-03-07T12:12:52;5.90;99.90
17039;DHT22;8636;55.750;13.202;2024-03-07T12:15:30;5.90;99.90
17039;DHT22;8636;55.750;13.202;2024-03-07T12:18:01;5.90;99.90
17039;DHT22;8636;55.750;13.202;2024-03-07T12:20:30;5.80;99.90
17039;DHT22;8636;55.750;13.202;2024-03-07T12:23:07;6.00;99.90
17039;DHT22;8636;55.750;13.202;2024-03-07T12:25:35;6.00;99.90
17039;DHT22;8636;55.750;13.202;2024-03-07T12:28:05;6.00;99.90
17039;DHT22;8636;55.750;13.202;2024-03-07T12:30:49;6.00;99.90
17039;DHT22;8636;55.750;13.202;2024-03-07T12:33:19;6.00;99.90
17039;DHT22;8636;55.750;13.202;2024-03-07T12:35:54;6.00;99.90
17039;DHT22;8636;55.750;13.202;2024-03-07T12:38:33;6.10;99.90
17039;DHT22;8636;55.750;13.202;2024-03-07T12:41:10;6.10;99.90
17039;DHT22;8636;55.750;13.202;2024-03-07T12:43:43;6.20;99.90
17039;DHT22;8636;55.750;13.202;2024-03-07T12:46:19;6.20;99.90
17039;DHT22;8636;55.750;13.202;2024-03-07T12:48:48;6.40;99.90
17039;DHT22;8636;55.750;13.202;2024-03-07T12:51:17;6.40;99.90
17039;DHT22;8636;55.750;13.202;2024-03-07T12:53:54;6.40;99.90
17039;DHT22;8636;55.750;13.202;2024-03-07T12:56:22;6.40;99.90
17039;DHT22;8636;55.750;13.202;2024-03-07T12:58:50;6.60;99.90
17039;DHT22;8636;55.750;13.202;2024-03-07T13:01:25;6.70;99.90
17039;DHT22;8636;55.750;13.202;2024-03-07T13:03:54;6.60;99.90
17039;DHT22;8636;55.750;13.202;2024-03-07T13:06:43;6.70;99.90
17039;DHT22;8636;55.750;13.202;2024-03-07T13:09:14;6.70;99.90
17039;DHT22;8636;55.750;13.202;2024-03-07T13:11:48;6.70;99.90
17039;DHT22;8636;55.750;13.202;2024-03-07T13:14:16;6.70;99.90
17039;DHT22;8636;55.750;13.202;2024-03-07T13:16:44;6.80;99.90
17039;DHT22;8636;55.750;13.202;2024-03-07T13:19:19;6.80;99.90
17039;DHT22;8636;55.750;13.202;2024-03-07T13:21:47;6.70;99.90
17039;DHT22;8636;55.750;13.202;2024-03-07T13:24:16;6.80;99.90
17039;DHT22;8636;55.750;13.202;2024-03-07T13:26:50;7.00;99.90
17039;DHT22;8636;55.750;13.202;2024-03-07T13:29:18;7.20;99.90
17039;DHT22;8636;55.750;13.202;2024-03-07T13:31:57;7.20;99.90
17039;DHT22;8636;55.750;13.202;2024-03-07T13:34:27;7.30;99.90
17039;DHT22;8636;55.750;13.202;2024-03-07T13:36:56;7.40;99.90
17039;DHT22;8636;55.750;13.202;2024-03-07T13:39:34;7.20;99.90
17039;DHT22;8636;55.750;13.202;2024-03-07T13:42:02;7.10;99.90
17039;DHT22;8636;55.750;13.202;2024-03-07T13:44:31;7.00;99.90
17039;DHT22;8636;55.750;13.202;2024-03-07T13:47:06;7.10;99.90
17039;DHT22;8636;55.750;13.202;2024-03-07T13:49:35;7.10;99.90
17039;DHT22;8636;55.750;13.202;2024-03-07T13:52:04;7.10;99.90
17039;DHT22;8636;55.750;13.202;2024-03-07T13:54:48;7.10;99.90
17039;DHT22;8636;55.750;13.202;2024-03-07T13:57:26;7.10;99.90
17039;DHT22;8636;55.750;13.202;2024-03-07T14:00:20;7.20;99.90
17039;DHT22;8636;55.750;13.202;2024-03-07T14:03:13;7.20;99.90
17039;DHT22;8636;55.750;13.202;2024-03-07T14:06:01;7.20;99.90
17039;DHT22;8636;55.750;13.202;2024-03-07T14:09:11;7.20;99.90
17039;DHT22;8636;55.750;13.202;2024-03-07T14:12:35;7.20;99.90
17039;DHT22;8636;55.750;13.202;2024-03-07T14:15:43;7.00;99.90
17039;DHT22;8636;55.750;13.202;2024-03-07T14:19:02;7.00;99.90
17039;DHT22;8636;55.750;13.202;2024-03-07T14:30:51;6.90;99.90
17039;DHT22;8636;55.750;13.202;2024-03-07T14:33:28;7.00;99.90
17039;DHT22;8636;55.750;13.202;2024-03-07T14:36:07;7.00;99.90
17039;DHT22;8636;55.750;13.202;2024-03-07T14:38:46;7.00;99.90
17039;DHT22;8636;55.750;13.202;2024-03-07T14:41:40;7.00;99.90
17039;DHT22;8636;55.750;13.202;2024-03-07T14:44:10;6.80;99.90
17039;DHT22;8636;55.750;13.202;2024-03-07T14:46:47;6.90;99.90
17039;DHT22;8636;55.750;13.202;2024-03-07T14:49:17;6.90;99.90
17039;DHT22;8636;55.750;13.202;2024-03-07T14:51:52;6.90;99.90
17039;DHT22;8636;55.750;13.202;2024-03-07T14:54:28;6.90;99.90
17039;DHT22;8636;55.750;13.202;2024-03-07T14:57:03;6.80;99.90
17039;DHT22;8636;55.750;13.202;2024-03-07T14:59:32;6.80;99.90
17039;DHT22;8636;55.750;13.202;2024-03-07T15:02:00;6.70;99.90
17039;DHT22;8636;55.750;13.202;2024-03-07T15:04:43;6.60;99.90
17039;DHT22;8636;55.750;13.202;2024-03-07T15:07:11;6.70;99.90
17039;DHT22;8636;55.750;13.202;2024-03-07T15:09:46;6.60;99.90
17039;DHT22;8636;55.750;13.202;2024-03-07T15:12:14;6.50;99.90
17039;DHT22;8636;55.750;13.202;2024-03-07T15:14:42;6.40;99.90
17039;DHT22;8636;55.750;13.202;2024-03-07T15:17:29;6.50;99.90
17039;DHT22;8636;55.750;13.202;2024-03-07T15:19:57;6.50;99.90
17039;DHT22;8636;55.750;13.202;2024-03-07T15:22:32;6.50;99.90
17039;DHT22;8636;55.750;13.202;2024-03-07T15:25:02;6.50;99.90
17039;DHT22;8636;55.750;13.202;2024-03-07T15:27:30;6.40;99.90
17039;DHT22;8636;55.750;13.202;2024-03-07T15:30:06;6.30;99.90
17039;DHT22;8636;55.750;13.202;2024-03-07T15:32:37;6.20;99.90
17039;DHT22;8636;55.750;13.202;2024-03-07T15:35:13;6.20;99.90
17039;DHT22;8636;55.750;13.202;2024-03-07T15:37:44;6.10;99.90
17039;DHT22;8636;55.750;13.202;2024-03-07T15:40:24;6.00;99.90
17039;DHT22;8636;55.750;13.202;2024-03-07T15:42:55;5.90;99.90
17039;DHT22;8636;55.750;13.202;2024-03-07T15:45:30;5.90;99.90
17039;DHT22;8636;55.750;13.202;2024-03-07T15:47:59;5.80;99.90
17039;DHT22;8636;55.750;13.202;2024-03-07T15:50:38;5.90;99.90
17039;DHT22;8636;55.750;13.202;2024-03-07T15:53:06;5.80;99.90
17039;DHT22;8636;55.750;13.202;2024-03-07T15:55:35;5.70;99.90
17039;DHT22;8636;55.750;13.202;2024-03-07T15:58:11;5.70;99.90
17039;DHT22;8636;55.750;13.202;2024-03-07T16:00:44;5.60;99.90
17039;DHT22;8636;55.750;13.202;2024-03-07T16:03:20;5.50;99.90
17039;DHT22;8636;55.750;13.202;2024-03-07T16:05:49;5.40;99.90
17039;DHT22;8636;55.750;13.202;2024-03-07T16:08:37;5.30;99.90
17039;DHT22;8636;55.750;13.202;2024-03-07T16:11:07;5.20;99.90
17039;DHT22;8636;55.750;13.202;2024-03-07T16:13:42;5.20;99.90
17039;DHT22;8636;55.750;13.202;2024-03-07T16:16:11;5.10;99.90
17039;DHT22;8636;55.750;13.202;2024-03-07T16:18:40;5.00;99.90
17039;DHT22;8636;55.750;13.202;2024-03-07T16:21:16;4.90;99.90
17039;DHT22;8636;55.750;13.202;2024-03-07T16:23:44;4.80;99.90
17039;DHT22;8636;55.750;13.202;2024-03-07T16:26:20;4.70;99.90
17039;DHT22;8636;55.750;13.202;2024-03-07T16:28:54;4.60;99.90
17039;DHT22;8636;55.750;13.202;2024-03-07T16:31:22;4.40;99.90
17039;DHT22;8636;55.750;13.202;2024-03-07T16:33:54;4.30;99.90